Terminal Aerodrome Forecast
Issued by NWS

Home | Current Version | Previous Version | Text Only | Print | Product List | Glossary On
Versions: 1 2 3 4 5 6 7 8 9 10 11 12 13 14 15 16
000
FTUS46 KLOX 041125
TAFPMD
TAF
KPMD 041125Z 0412/0512 VRB05KT P6SM BKN200
     FM042000 22020G30KT P6SM OVC150
     FM050200 22015G25KT P6SM BKN150
     FM050800 23012KT P6SM BKN150=

USA.gov is the U.S. government's official web portal to all federal, state and local government web resources and services.